createdAt,value
2022-09-17T00:01:23.226Z,86.67
2022-09-17T00:03:52.450Z,86.47
2022-09-17T00:06:20.662Z,85.93
2022-09-17T00:08:48.750Z,86.37
2022-09-17T00:11:21.471Z,86.56
2022-09-17T00:13:50.508Z,86.72
2022-09-17T00:16:25.796Z,87.55
2022-09-17T00:18:54.062Z,88.51
2022-09-17T00:21:22.430Z,88.80
2022-09-17T00:23:50.046Z,85.96
2022-09-17T00:26:20.041Z,85.80
2022-09-17T00:28:50.800Z,85.82
2022-09-17T00:31:19.359Z,85.82
2022-09-17T00:33:47.315Z,86.95
2022-09-17T00:36:15.364Z,87.33
2022-09-17T00:38:43.412Z,87.25
2022-09-17T00:41:11.219Z,87.98
2022-09-17T00:43:43.976Z,87.77
2022-09-17T00:46:23.894Z,88.92
2022-09-17T00:48:53.501Z,88.67
2022-09-17T00:51:26.445Z,88.59
2022-09-17T00:53:54.222Z,88.84
2022-09-17T00:56:25.391Z,88.80
2022-09-17T00:58:56.436Z,88.83
2022-09-17T01:01:24.991Z,88.57
2022-09-17T01:03:52.754Z,89.03
2022-09-17T01:06:29.240Z,89.19
2022-09-17T01:09:17.077Z,89.18
2022-09-17T01:11:57.790Z,89.49
2022-09-17T01:14:43.453Z,90.52
2022-09-17T01:17:20.887Z,90.50
2022-09-17T01:20:25.603Z,91.27
2022-09-17T01:23:11.593Z,91.47
2022-09-17T01:25:49.485Z,91.22
2022-09-17T01:28:39.079Z,90.91
2022-09-17T01:31:27.660Z,90.77
2022-09-17T01:34:02.859Z,91.25
2022-09-17T01:36:45.943Z,91.27
2022-09-17T01:39:21.645Z,90.69
2022-09-17T01:41:55.687Z,90.64
2022-09-17T01:44:30.150Z,91.60
2022-09-17T01:47:05.844Z,92.20
2022-09-17T01:49:37.918Z,92.72
2022-09-17T01:52:06.410Z,92.08
2022-09-17T01:54:41.945Z,92.00
2022-09-17T01:57:17.331Z,92.57
2022-09-17T01:59:50.275Z,92.16
2022-09-17T02:02:25.411Z,91.64
2022-09-17T02:04:58.879Z,91.27
2022-09-17T02:07:27.551Z,91.53
2022-09-17T02:10:01.932Z,91.01
2022-09-17T02:12:33.934Z,91.35
2022-09-17T02:15:07.495Z,91.25
2022-09-17T02:17:42.222Z,90.50
2022-09-17T02:20:11.012Z,91.12
2022-09-17T02:22:43.599Z,90.93
2022-09-17T02:25:19.418Z,90.55
2022-09-17T02:27:59.087Z,90.88
2022-09-17T02:30:26.774Z,91.06
2022-09-17T02:32:57.262Z,90.25
2022-09-17T02:35:25.242Z,89.85
2022-09-17T02:37:53.542Z,89.84
2022-09-17T02:40:25.838Z,89.51
2022-09-17T02:43:08.515Z,88.81
2022-09-17T02:45:46.919Z,89.28
2022-09-17T02:48:48.885Z,89.85
2022-09-17T02:51:27.848Z,90.34
2022-09-17T02:54:02.271Z,91.17
2022-09-17T02:56:41.416Z,90.88
2022-09-17T02:59:19.631Z,90.67
2022-09-17T03:01:52.007Z,90.96
2022-09-17T03:04:23.838Z,91.24
2022-09-17T03:06:53.502Z,91.18
2022-09-17T03:09:21.196Z,91.38
2022-09-17T03:11:48.986Z,91.32
2022-09-17T03:14:17.038Z,90.76
2022-09-17T03:16:44.690Z,91.37
2022-09-17T03:19:12.313Z,91.06
2022-09-17T03:21:41.363Z,90.81
2022-09-17T03:24:10.906Z,90.48
2022-09-17T03:26:38.630Z,90.19
2022-09-17T03:29:07.324Z,90.00
2022-09-17T03:31:35.040Z,90.31
2022-09-17T03:34:03.310Z,90.23
2022-09-17T03:36:30.944Z,91.11
2022-09-17T03:39:00.776Z,90.63
2022-09-17T03:41:28.791Z,90.94
2022-09-17T03:43:56.967Z,90.72
2022-09-17T03:46:24.653Z,91.11
2022-09-17T03:48:52.568Z,91.87
2022-09-17T03:51:20.411Z,92.14
2022-09-17T03:53:48.850Z,92.45
2022-09-17T03:56:17.868Z,92.20
2022-09-17T03:58:46.532Z,91.89
2022-09-17T04:01:14.852Z,91.26
2022-09-17T04:03:42.730Z,90.76
2022-09-17T04:06:10.341Z,90.86
2022-09-17T04:08:38.578Z,90.35
2022-09-17T04:11:07.778Z,89.72
2022-09-17T04:13:37.524Z,90.20
2022-09-17T04:16:05.427Z,90.36
2022-09-17T04:18:33.715Z,90.78
2022-09-17T04:21:01.323Z,90.87
2022-09-17T04:23:29.322Z,89.36
2022-09-17T04:25:56.914Z,90.17
2022-09-17T04:28:24.819Z,90.59
2022-09-17T04:30:54.277Z,90.49
2022-09-17T04:33:21.971Z,90.41
2022-09-17T04:35:49.898Z,89.82
2022-09-17T04:38:20.476Z,90.31
2022-09-17T04:40:49.482Z,89.97
2022-09-17T04:43:17.084Z,89.11
2022-09-17T04:45:47.387Z,89.51
2022-09-17T04:48:16.331Z,89.27
2022-09-17T04:50:44.259Z,89.83
2022-09-17T04:53:12.490Z,91.00
2022-09-17T04:55:40.994Z,91.41
2022-09-17T04:58:08.583Z,91.53
2022-09-17T05:00:36.694Z,92.30
2022-09-17T05:03:04.689Z,92.78
2022-09-17T05:05:33.924Z,92.00
2022-09-17T05:08:01.771Z,92.62
2022-09-17T05:10:29.726Z,91.64
2022-09-17T05:12:58.118Z,91.56
2022-09-17T05:15:27.764Z,91.44
2022-09-17T05:17:55.416Z,91.57
2022-09-17T05:20:23.399Z,91.22
2022-09-17T05:22:53.248Z,90.37
2022-09-17T05:25:24.063Z,90.53
2022-09-17T05:27:52.496Z,90.16
2022-09-17T05:30:21.249Z,89.88
2022-09-17T05:32:49.296Z,89.41
2022-09-17T05:35:17.524Z,90.30
2022-09-17T05:37:45.128Z,90.09
2022-09-17T05:40:15.045Z,89.77
2022-09-17T05:42:42.734Z,89.42
2022-09-17T05:45:11.083Z,89.84
2022-09-17T05:47:38.704Z,90.40
2022-09-17T05:50:07.396Z,91.40
2022-09-17T05:52:35.008Z,91.52
2022-09-17T05:55:03.054Z,91.33
2022-09-17T05:57:32.017Z,91.53
2022-09-17T06:00:00.285Z,91.22
2022-09-17T06:02:28.185Z,90.47
2022-09-17T06:04:55.840Z,91.11
2022-09-17T06:07:23.459Z,90.60
2022-09-17T06:09:51.390Z,90.55
2022-09-17T06:12:19.007Z,89.36
2022-09-17T06:14:48.394Z,90.42
2022-09-17T06:17:19.079Z,90.23
2022-09-17T06:19:49.791Z,89.44
2022-09-17T06:22:19.188Z,88.32
2022-09-17T06:24:47.184Z,89.24
2022-09-17T06:27:15.024Z,89.36
2022-09-17T06:29:43.282Z,88.68
2022-09-17T06:32:15.519Z,89.38
2022-09-17T06:34:44.029Z,89.19
2022-09-17T06:37:11.667Z,89.39
2022-09-17T06:39:40.085Z,88.44
2022-09-17T06:42:08.074Z,88.75
2022-09-17T06:44:36.474Z,88.45
2022-09-17T06:47:04.153Z,88.29
2022-09-17T06:49:33.394Z,88.52
2022-09-17T06:52:02.027Z,88.61
2022-09-17T06:54:29.626Z,89.44
2022-09-17T06:56:57.645Z,88.76
2022-09-17T06:59:25.383Z,88.63
2022-09-17T07:01:53.215Z,88.13
2022-09-17T07:04:21.685Z,88.38
2022-09-17T07:06:50.678Z,86.90
2022-09-17T07:09:18.603Z,86.88
2022-09-17T07:11:46.441Z,87.09
2022-09-17T07:14:14.347Z,87.79
2022-09-17T07:16:41.986Z,87.12
2022-09-17T07:19:11.147Z,86.98
2022-09-17T07:21:38.887Z,86.40
2022-09-17T07:24:08.286Z,86.50
2022-09-17T07:26:36.394Z,85.26
2022-09-17T07:29:04.023Z,84.68
2022-09-17T07:31:32.020Z,84.89
2022-09-17T07:33:59.662Z,83.21
2022-09-17T07:36:27.281Z,84.24
2022-09-17T07:38:54.879Z,84.34
2022-09-17T07:41:24.394Z,83.68
2022-09-17T07:43:54.624Z,84.03
2022-09-17T07:46:23.131Z,82.60
2022-09-17T07:48:51.715Z,83.59
2022-09-17T07:51:21.819Z,84.82
2022-09-17T07:53:51.858Z,85.92
2022-09-17T07:56:20.228Z,87.28
2022-09-17T07:58:49.507Z,88.55
2022-09-17T08:01:21.163Z,86.79
2022-09-17T08:03:50.429Z,86.12
2022-09-17T08:06:20.451Z,86.03
2022-09-17T08:08:48.501Z,86.32
2022-09-17T08:11:38.108Z,87.10
2022-09-17T08:14:11.455Z,87.17
2022-09-17T08:16:39.902Z,85.15
2022-09-17T08:19:09.084Z,84.50
2022-09-17T08:21:37.164Z,85.15
2022-09-17T08:24:05.268Z,83.68
2022-09-17T08:26:33.563Z,83.57
2022-09-17T08:29:01.212Z,85.46
2022-09-17T08:31:30.719Z,86.18
2022-09-17T08:33:59.718Z,85.31
2022-09-17T08:36:28.131Z,86.36
2022-09-17T08:38:57.889Z,84.00
2022-09-17T08:41:34.010Z,85.47
2022-09-17T08:44:14.882Z,83.73
2022-09-17T08:46:48.591Z,81.33
2022-09-17T08:49:26.107Z,83.40
2022-09-17T08:52:07.886Z,83.53
2022-09-17T08:54:43.452Z,84.04
2022-09-17T08:57:19.772Z,83.12
2022-09-17T08:59:52.386Z,83.16
2022-09-17T09:02:33.898Z,83.54
2022-09-17T09:05:13.269Z,84.95
2022-09-17T09:07:45.454Z,83.03
2022-09-17T09:10:17.734Z,81.01
2022-09-17T09:12:47.475Z,81.47
2022-09-17T09:15:30.348Z,82.35
2022-09-17T09:18:06.706Z,81.69
2022-09-17T09:20:46.337Z,80.73
2022-09-17T09:23:19.924Z,80.84
2022-09-17T09:25:58.981Z,80.90
2022-09-17T09:28:48.908Z,82.88
2022-09-17T09:31:35.873Z,82.59
2022-09-17T09:34:06.168Z,83.54
2022-09-17T09:36:35.079Z,82.11
2022-09-17T09:39:07.630Z,81.64
2022-09-17T09:41:41.902Z,82.29
2022-09-17T09:44:12.733Z,81.67
2022-09-17T09:47:06.706Z,81.39
2022-09-17T09:49:51.155Z,79.38
2022-09-17T09:52:33.492Z,80.69
2022-09-17T09:55:16.524Z,82.71
2022-09-17T09:57:47.955Z,82.24
2022-09-17T10:00:28.880Z,82.59
2022-09-17T10:03:02.690Z,83.15
2022-09-17T10:05:31.931Z,84.43
2022-09-17T10:08:00.389Z,86.00
2022-09-17T10:10:28.027Z,87.13
2022-09-17T10:13:08.973Z,88.74
2022-09-17T10:15:36.850Z,90.62
2022-09-17T10:18:14.184Z,90.26
2022-09-17T10:20:57.320Z,89.87
2022-09-17T10:23:27.402Z,89.61
2022-09-17T10:25:56.958Z,89.15
2022-09-17T10:28:46.694Z,89.28
2022-09-17T10:31:14.711Z,88.32
2022-09-17T10:33:54.844Z,88.40
2022-09-17T10:36:42.492Z,88.58
2022-09-17T10:39:34.067Z,88.89
2022-09-17T10:42:05.011Z,88.18
2022-09-17T10:44:34.205Z,88.59
2022-09-17T10:47:15.548Z,88.08
2022-09-17T10:49:47.659Z,87.03
2022-09-17T10:52:25.620Z,86.03
2022-09-17T10:55:14.710Z,87.03
2022-09-17T10:57:58.704Z,86.87
2022-09-17T11:00:30.879Z,86.72
2022-09-17T11:03:25.333Z,86.81
2022-09-17T11:06:22.564Z,84.90
2022-09-17T11:09:01.742Z,84.98
2022-09-17T11:11:40.620Z,82.62
2022-09-17T11:14:20.708Z,82.96
2022-09-17T11:17:00.353Z,83.29
2022-09-17T11:19:37.685Z,82.13
2022-09-17T11:22:18.118Z,81.91
2022-09-17T11:25:04.058Z,83.10
2022-09-17T11:27:48.031Z,82.89
2022-09-17T11:30:18.703Z,81.36
2022-09-17T11:33:09.308Z,83.55
2022-09-17T11:35:41.396Z,84.10
2022-09-17T11:38:17.739Z,81.79
2022-09-17T11:40:51.500Z,83.19
2022-09-17T11:43:27.172Z,82.62
2022-09-17T11:46:01.151Z,80.70
2022-09-17T11:48:36.156Z,80.05
2022-09-17T11:51:13.730Z,80.63
2022-09-17T11:53:45.981Z,80.71
2022-09-17T11:56:22.330Z,79.69
2022-09-17T11:58:55.211Z,80.69
2022-09-17T12:01:29.759Z,80.00
2022-09-17T12:04:01.766Z,79.71
2022-09-17T12:06:39.463Z,75.14
2022-09-17T12:09:13.470Z,75.55
2022-09-17T12:11:49.407Z,77.28
2022-09-17T12:14:23.060Z,76.86
2022-09-17T12:16:54.495Z,77.57
2022-09-17T12:19:27.634Z,78.01
2022-09-17T12:21:58.960Z,77.62
2022-09-17T12:24:28.722Z,77.11
2022-09-17T12:27:18.075Z,77.69
2022-09-17T12:30:11.445Z,75.84
2022-09-17T12:33:00.991Z,75.24
2022-09-17T12:38:51.457Z,73.34
2022-09-17T12:41:22.042Z,74.94
2022-09-17T12:44:03.664Z,75.48
2022-09-17T12:46:51.714Z,75.62
2022-09-17T12:49:48.152Z,76.17
2022-09-17T12:52:24.427Z,77.59
2022-09-17T12:55:25.566Z,78.02
2022-09-17T12:58:03.064Z,77.31
2022-09-17T13:00:38.366Z,77.29
2022-09-17T13:03:16.264Z,75.33
2022-09-17T13:06:10.317Z,75.99
2022-09-17T13:09:05.094Z,76.67
2022-09-17T13:11:56.925Z,74.13
2022-09-17T13:14:35.054Z,75.04
2022-09-17T13:17:08.559Z,74.97
2022-09-17T13:19:42.780Z,73.66
2022-09-17T13:22:18.406Z,76.74
2022-09-17T13:24:49.006Z,75.41
2022-09-17T13:27:24.343Z,75.83
2022-09-17T13:30:00.310Z,75.33
2022-09-17T13:32:51.836Z,74.06
2022-09-17T13:35:47.671Z,73.83
2022-09-17T13:38:19.087Z,74.10
2022-09-17T13:40:49.271Z,74.01
2022-09-17T13:43:21.386Z,73.69
2022-09-17T13:46:18.107Z,73.78
2022-09-17T13:48:50.891Z,72.73
2022-09-17T13:51:45.255Z,73.62
2022-09-17T13:54:14.330Z,75.30
2022-09-17T13:56:45.870Z,71.95
2022-09-17T13:59:17.111Z,73.67
2022-09-17T14:02:00.621Z,72.07
2022-09-17T14:04:50.264Z,71.69
2022-09-17T14:07:36.059Z,73.13
2022-09-17T14:10:37.819Z,73.67
2022-09-17T14:13:29.102Z,74.45
2022-09-17T14:16:00.698Z,78.11
2022-09-17T14:18:37.862Z,81.73
2022-09-17T14:21:15.903Z,82.31
2022-09-17T14:23:45.551Z,81.33
2022-09-17T14:26:26.399Z,83.50
2022-09-17T14:29:00.010Z,82.35
2022-09-17T14:31:33.683Z,82.10
2022-09-17T14:34:06.107Z,83.31
2022-09-17T14:36:39.135Z,83.20
2022-09-17T14:39:14.683Z,83.65
2022-09-17T14:41:45.783Z,81.97
2022-09-17T14:44:16.746Z,81.46
2022-09-17T14:46:50.000Z,81.38
2022-09-17T14:49:22.879Z,81.27
2022-09-17T14:51:51.128Z,80.69
2022-09-17T14:54:25.188Z,81.72
2022-09-17T14:56:56.956Z,81.04
2022-09-17T14:59:33.762Z,82.34
2022-09-17T15:02:01.528Z,83.26
2022-09-17T15:04:29.758Z,82.51
2022-09-17T15:07:08.489Z,83.66
2022-09-17T15:09:36.860Z,84.67
2022-09-17T15:12:07.931Z,83.82
2022-09-17T15:14:39.983Z,84.30
2022-09-17T15:17:08.961Z,83.23
2022-09-17T15:19:40.150Z,83.38
2022-09-17T15:22:10.616Z,83.82
2022-09-17T15:24:44.168Z,83.46
2022-09-17T15:27:21.078Z,82.06
2022-09-17T15:29:52.061Z,83.01
2022-09-17T15:32:19.857Z,83.17
2022-09-17T15:35:18.251Z,82.81
2022-09-17T15:38:00.443Z,83.30
2022-09-17T15:40:38.809Z,82.62
2022-09-17T15:43:18.230Z,83.99
2022-09-17T15:45:46.759Z,83.58
2022-09-17T15:48:34.816Z,82.89
2022-09-17T15:51:04.744Z,84.18
2022-09-17T15:53:33.572Z,84.14
2022-09-17T15:56:05.247Z,81.43
2022-09-17T15:58:39.372Z,82.08
2022-09-17T16:01:55.949Z,82.00
2022-09-17T16:04:26.626Z,80.32
2022-09-17T16:06:56.659Z,80.01
2022-09-17T16:09:49.033Z,78.94
2022-09-17T16:12:19.096Z,80.06
2022-09-17T16:14:50.588Z,80.51
2022-09-17T16:17:43.195Z,79.13
2022-09-17T16:20:17.160Z,80.00
2022-09-17T16:22:47.878Z,81.15
2022-09-17T16:25:16.208Z,82.15
2022-09-17T16:27:48.065Z,81.31
2022-09-17T16:30:20.158Z,80.93
2022-09-17T16:32:48.413Z,80.63
2022-09-17T16:35:17.841Z,80.25
2022-09-17T16:37:48.598Z,80.45
2022-09-17T16:40:16.859Z,81.10
2022-09-17T16:42:44.489Z,80.67
2022-09-17T16:45:12.740Z,80.76
2022-09-17T16:47:43.007Z,81.29
2022-09-17T16:50:13.494Z,81.58
2022-09-17T16:52:41.159Z,81.94
2022-09-17T16:55:10.164Z,82.11
2022-09-17T16:57:37.791Z,82.70
2022-09-17T17:00:07.594Z,83.28
2022-09-17T17:02:35.495Z,83.44
2022-09-17T17:05:05.099Z,83.30
2022-09-17T17:07:32.885Z,84.10
2022-09-17T17:10:02.061Z,83.85
2022-09-17T17:12:29.681Z,83.59
2022-09-17T17:14:58.104Z,83.72
2022-09-17T17:17:25.872Z,84.21
2022-09-17T17:19:54.431Z,83.74
2022-09-17T17:22:24.140Z,83.85
2022-09-17T17:24:51.818Z,85.00
2022-09-17T17:27:19.416Z,85.37
2022-09-17T17:29:47.235Z,85.92
2022-09-17T17:32:15.151Z,86.05
2022-09-17T17:34:42.740Z,86.14
2022-09-17T17:37:10.749Z,86.38
2022-09-17T17:39:39.684Z,86.77
2022-09-17T17:42:07.897Z,87.20
2022-09-17T17:44:35.705Z,87.62
2022-09-17T17:47:03.696Z,87.27
2022-09-17T17:49:31.286Z,88.23
2022-09-17T17:51:58.880Z,88.17
2022-09-17T17:54:28.944Z,88.27
2022-09-17T17:56:58.250Z,88.62
2022-09-17T17:59:25.992Z,88.86
2022-09-17T18:01:53.750Z,88.15
2022-09-17T18:04:21.440Z,87.77
2022-09-17T18:06:49.118Z,87.11
2022-09-17T18:09:16.700Z,87.19
2022-09-17T18:11:45.003Z,87.55
2022-09-17T18:14:14.450Z,86.53
2022-09-17T18:16:42.752Z,86.61
2022-09-17T18:19:11.294Z,87.22
2022-09-17T18:21:39.892Z,86.79
2022-09-17T18:24:07.554Z,86.62
2022-09-17T18:26:36.183Z,86.95
2022-09-17T18:29:07.754Z,86.67
2022-09-17T18:31:38.184Z,86.96
2022-09-17T18:34:07.786Z,87.48
2022-09-17T18:36:38.330Z,87.45
2022-09-17T18:39:33.172Z,87.69
2022-09-17T18:41:55.575Z,87.45
2022-09-17T18:44:23.273Z,88.46
2022-09-17T18:46:53.026Z,88.49
2022-09-17T18:49:20.691Z,88.98
2022-09-17T18:51:48.899Z,88.30
2022-09-17T18:54:16.480Z,88.75
2022-09-17T18:56:44.891Z,88.85
2022-09-17T18:59:12.519Z,89.40
2022-09-17T19:01:41.153Z,89.29
2022-09-17T19:04:11.211Z,88.55
2022-09-17T19:06:39.209Z,88.75
2022-09-17T19:09:07.264Z,88.57
2022-09-17T19:11:35.566Z,88.07
2022-09-17T19:14:03.359Z,88.67
2022-09-17T19:16:31.455Z,88.30
2022-09-17T19:18:59.075Z,88.25
2022-09-17T19:21:28.160Z,88.63
2022-09-17T19:23:55.766Z,87.64
2022-09-17T19:26:25.298Z,87.11
2022-09-17T19:28:53.665Z,87.18
2022-09-17T19:31:21.842Z,87.70
2022-09-17T19:33:50.422Z,87.68
2022-09-17T19:36:20.073Z,87.71
2022-09-17T19:38:49.368Z,88.61
2022-09-17T19:41:19.990Z,88.78
2022-09-17T19:43:48.159Z,88.53
2022-09-17T19:46:18.111Z,88.77
2022-09-17T19:48:46.852Z,88.99
2022-09-17T19:51:15.085Z,88.90
2022-09-17T19:53:42.922Z,89.25
2022-09-17T19:56:14.840Z,89.85
2022-09-17T19:58:42.932Z,90.42
2022-09-17T20:01:12.050Z,90.04
2022-09-17T20:03:40.299Z,89.47
2022-09-17T20:06:10.614Z,89.03
2022-09-17T20:08:46.844Z,89.77
2022-09-17T20:11:17.985Z,90.02
2022-09-17T20:13:45.726Z,90.01
2022-09-17T20:16:17.180Z,89.58
2022-09-17T20:18:44.973Z,88.91
2022-09-17T20:21:15.983Z,88.88
2022-09-17T20:23:43.843Z,88.70
2022-09-17T20:26:13.095Z,88.35
2022-09-17T20:28:42.050Z,89.79
2022-09-17T20:31:13.183Z,89.53
2022-09-17T20:33:41.298Z,89.57
2022-09-17T20:36:12.694Z,90.35
2022-09-17T20:41:28.938Z,92.30
2022-09-17T20:43:57.884Z,92.04
2022-09-17T20:46:29.238Z,92.50
2022-09-17T20:48:58.223Z,90.79
2022-09-17T20:51:29.690Z,91.39
2022-09-17T20:53:58.159Z,90.77
2022-09-17T20:56:27.961Z,91.92
2022-09-17T20:59:03.402Z,92.81
2022-09-17T21:01:34.882Z,92.47
2022-09-17T21:04:03.398Z,92.70
2022-09-17T21:06:33.188Z,92.98
2022-09-17T21:09:01.420Z,92.43
2022-09-17T21:11:31.203Z,92.72
2022-09-17T21:14:00.360Z,93.67
2022-09-17T21:16:29.759Z,93.92
2022-09-17T21:19:00.009Z,94.00
2022-09-17T21:21:27.951Z,94.10
2022-09-17T21:23:55.694Z,94.06
2022-09-17T21:26:25.038Z,94.37
2022-09-17T21:28:55.041Z,94.23
2022-09-17T21:31:29.603Z,92.80
2022-09-17T21:34:02.519Z,92.08
2022-09-17T21:36:33.020Z,91.13
2022-09-17T21:39:02.769Z,89.48
2022-09-17T21:41:31.032Z,89.36
2022-09-17T21:43:59.177Z,88.63
2022-09-17T21:46:28.996Z,88.67
2022-09-17T21:48:58.222Z,88.44
2022-09-17T21:51:30.378Z,88.28
2022-09-17T21:53:59.379Z,88.17
2022-09-17T21:56:27.591Z,87.94
2022-09-17T21:58:56.904Z,87.89
2022-09-17T22:01:26.418Z,88.09
2022-09-17T22:03:56.889Z,88.05
2022-09-17T22:06:25.819Z,87.57
2022-09-17T22:08:56.222Z,88.17
2022-09-17T22:11:25.875Z,88.64
2022-09-17T22:13:55.730Z,88.30
2022-09-17T22:16:24.430Z,88.82
2022-09-17T22:18:52.640Z,88.17
2022-09-17T22:21:22.417Z,89.17
2022-09-17T22:23:50.855Z,88.84
2022-09-17T22:26:22.301Z,89.58
2022-09-17T22:28:50.399Z,89.67
2022-09-17T22:31:19.687Z,89.82
2022-09-17T22:33:51.774Z,90.11
2022-09-17T22:36:20.890Z,90.75
2022-09-17T22:38:51.444Z,90.74
2022-09-17T22:41:23.129Z,90.72
2022-09-17T22:43:54.584Z,90.13
2022-09-17T22:46:24.598Z,90.41
2022-09-17T22:48:52.775Z,89.90
2022-09-17T22:51:20.395Z,89.74
2022-09-17T22:53:48.652Z,89.93
2022-09-17T22:56:19.655Z,89.63
2022-09-17T22:58:49.708Z,89.44
2022-09-17T23:01:19.064Z,89.70
2022-09-17T23:03:48.861Z,89.47
2022-09-17T23:06:19.725Z,89.44
2022-09-17T23:08:48.443Z,89.37
2022-09-17T23:11:18.839Z,88.83
2022-09-17T23:13:47.177Z,88.73
2022-09-17T23:16:16.873Z,88.17
2022-09-17T23:18:45.167Z,87.83
2022-09-17T23:21:17.129Z,87.42
2022-09-17T23:23:46.912Z,88.12
2022-09-17T23:26:16.054Z,87.80
2022-09-17T23:28:43.743Z,88.01
2022-09-17T23:31:13.083Z,88.25
2022-09-17T23:33:43.441Z,88.24
2022-09-17T23:36:13.698Z,88.41
2022-09-17T23:38:42.886Z,88.46
2022-09-17T23:41:12.554Z,88.96
2022-09-17T23:43:40.843Z,88.77
2022-09-17T23:46:08.561Z,89.89
2022-09-17T23:48:36.604Z,90.77
2022-09-17T23:51:05.668Z,90.72
2022-09-17T23:53:35.287Z,90.35
2022-09-17T23:56:03.753Z,90.62
2022-09-17T23:58:33.079Z,90.63
